sensor_id;sensor_type;location;lat;lon;timestamp;P1;durP1;ratioP1;P2;durP2;ratioP2
44536;SDS011;30245;51.966;6.292;2022-07-12T00:01:05;0.50;;;0.40;;
44536;SDS011;30245;51.966;6.292;2022-07-12T00:03:31;0.68;;;0.40;;
44536;SDS011;30245;51.966;6.292;2022-07-12T00:05:58;0.80;;;0.40;;
44536;SDS011;30245;51.966;6.292;2022-07-12T00:08:23;0.60;;;0.30;;
44536;SDS011;30245;51.966;6.292;2022-07-12T00:10:49;0.70;;;0.20;;
44536;SDS011;30245;51.966;6.292;2022-07-12T00:13:15;0.75;;;0.30;;
44536;SDS011;30245;51.966;6.292;2022-07-12T00:15:42;1.15;;;0.40;;
44536;SDS011;30245;51.966;6.292;2022-07-12T00:18:08;0.75;;;0.60;;
44536;SDS011;30245;51.966;6.292;2022-07-12T00:20:35;1.80;;;0.50;;
44536;SDS011;30245;51.966;6.292;2022-07-12T00:23:01;1.70;;;0.40;;
44536;SDS011;30245;51.966;6.292;2022-07-12T00:25:27;2.58;;;0.30;;
44536;SDS011;30245;51.966;6.292;2022-07-12T00:27:53;0.73;;;0.50;;
44536;SDS011;30245;51.966;6.292;2022-07-12T00:30:19;0.88;;;0.45;;
44536;SDS011;30245;51.966;6.292;2022-07-12T00:32:45;0.65;;;0.30;;
44536;SDS011;30245;51.966;6.292;2022-07-12T00:35:12;2.83;;;0.30;;
44536;SDS011;30245;51.966;6.292;2022-07-12T00:37:39;0.98;;;0.40;;
44536;SDS011;30245;51.966;6.292;2022-07-12T00:40:08;1.20;;;0.45;;
44536;SDS011;30245;51.966;6.292;2022-07-12T00:42:35;0.65;;;0.40;;
44536;SDS011;30245;51.966;6.292;2022-07-12T00:45:02;0.60;;;0.30;;
44536;SDS011;30245;51.966;6.292;2022-07-12T00:50:10;0.57;;;0.38;;
44536;SDS011;30245;51.966;6.292;2022-07-12T00:52:40;0.88;;;0.40;;
44536;SDS011;30245;51.966;6.292;2022-07-12T00:55:10;1.10;;;0.40;;
44536;SDS011;30245;51.966;6.292;2022-07-12T00:57:37;0.82;;;0.35;;
44536;SDS011;30245;51.966;6.292;2022-07-12T01:00:05;1.13;;;0.50;;
44536;SDS011;30245;51.966;6.292;2022-07-12T01:02:33;2.17;;;0.50;;
44536;SDS011;30245;51.966;6.292;2022-07-12T01:05:00;1.88;;;0.40;;
44536;SDS011;30245;51.966;6.292;2022-07-12T01:07:28;0.93;;;0.30;;
44536;SDS011;30245;51.966;6.292;2022-07-12T01:09:54;0.50;;;0.40;;
44536;SDS011;30245;51.966;6.292;2022-07-12T01:12:20;0.70;;;0.40;;
44536;SDS011;30245;51.966;6.292;2022-07-12T01:14:47;1.15;;;0.38;;
44536;SDS011;30245;51.966;6.292;2022-07-12T01:17:14;0.60;;;0.30;;
44536;SDS011;30245;51.966;6.292;2022-07-12T01:19:40;3.72;;;0.40;;
44536;SDS011;30245;51.966;6.292;2022-07-12T01:22:08;1.13;;;0.40;;
44536;SDS011;30245;51.966;6.292;2022-07-12T01:27:06;0.68;;;0.30;;
44536;SDS011;30245;51.966;6.292;2022-07-12T01:29:32;0.73;;;0.30;;
44536;SDS011;30245;51.966;6.292;2022-07-12T01:32:01;1.52;;;0.40;;
44536;SDS011;30245;51.966;6.292;2022-07-12T01:34:48;1.60;;;0.30;;
44536;SDS011;30245;51.966;6.292;2022-07-12T01:37:16;0.68;;;0.30;;
44536;SDS011;30245;51.966;6.292;2022-07-12T01:39:43;0.85;;;0.40;;
44536;SDS011;30245;51.966;6.292;2022-07-12T01:42:09;2.70;;;0.50;;
44536;SDS011;30245;51.966;6.292;2022-07-12T01:44:35;0.45;;;0.30;;
44536;SDS011;30245;51.966;6.292;2022-07-12T01:47:02;0.73;;;0.40;;
44536;SDS011;30245;51.966;6.292;2022-07-12T01:49:28;0.90;;;0.45;;
44536;SDS011;30245;51.966;6.292;2022-07-12T01:51:57;0.90;;;0.40;;
44536;SDS011;30245;51.966;6.292;2022-07-12T01:54:24;5.25;;;0.60;;
44536;SDS011;30245;51.966;6.292;2022-07-12T01:56:53;0.60;;;0.40;;
44536;SDS011;30245;51.966;6.292;2022-07-12T01:59:20;1.95;;;0.38;;
44536;SDS011;30245;51.966;6.292;2022-07-12T02:01:46;0.40;;;0.22;;
44536;SDS011;30245;51.966;6.292;2022-07-12T02:04:16;0.70;;;0.40;;
44536;SDS011;30245;51.966;6.292;2022-07-12T02:06:46;1.00;;;0.38;;
44536;SDS011;30245;51.966;6.292;2022-07-12T02:09:13;0.98;;;0.50;;
44536;SDS011;30245;51.966;6.292;2022-07-12T02:11:39;1.50;;;0.30;;
44536;SDS011;30245;51.966;6.292;2022-07-12T02:14:06;1.00;;;0.68;;
44536;SDS011;30245;51.966;6.292;2022-07-12T02:16:32;0.50;;;0.30;;
44536;SDS011;30245;51.966;6.292;2022-07-12T02:18:58;0.90;;;0.30;;
44536;SDS011;30245;51.966;6.292;2022-07-12T02:21:24;0.70;;;0.60;;
44536;SDS011;30245;51.966;6.292;2022-07-12T02:23:50;0.60;;;0.38;;
44536;SDS011;30245;51.966;6.292;2022-07-12T02:26:16;0.70;;;0.68;;
44536;SDS011;30245;51.966;6.292;2022-07-12T02:28:42;0.73;;;0.40;;
44536;SDS011;30245;51.966;6.292;2022-07-12T02:31:08;0.30;;;0.30;;
44536;SDS011;30245;51.966;6.292;2022-07-12T02:33:34;0.88;;;0.45;;
44536;SDS011;30245;51.966;6.292;2022-07-12T02:36:00;1.98;;;1.40;;
44536;SDS011;30245;51.966;6.292;2022-07-12T02:38:25;0.75;;;0.30;;
44536;SDS011;30245;51.966;6.292;2022-07-12T02:40:51;0.50;;;0.30;;
44536;SDS011;30245;51.966;6.292;2022-07-12T02:45:49;0.52;;;0.40;;
44536;SDS011;30245;51.966;6.292;2022-07-12T02:48:15;0.68;;;0.60;;
44536;SDS011;30245;51.966;6.292;2022-07-12T02:50:41;0.90;;;0.50;;
44536;SDS011;30245;51.966;6.292;2022-07-12T02:53:07;2.72;;;0.50;;
44536;SDS011;30245;51.966;6.292;2022-07-12T02:55:34;0.80;;;0.60;;
44536;SDS011;30245;51.966;6.292;2022-07-12T02:58:00;1.02;;;0.32;;
44536;SDS011;30245;51.966;6.292;2022-07-12T03:00:26;0.65;;;0.40;;
44536;SDS011;30245;51.966;6.292;2022-07-12T03:02:52;1.42;;;0.35;;
44536;SDS011;30245;51.966;6.292;2022-07-12T03:05:18;0.60;;;0.43;;
44536;SDS011;30245;51.966;6.292;2022-07-12T03:07:44;0.80;;;0.50;;
44536;SDS011;30245;51.966;6.292;2022-07-12T03:10:10;0.70;;;0.40;;
44536;SDS011;30245;51.966;6.292;2022-07-12T03:12:36;0.55;;;0.40;;
44536;SDS011;30245;51.966;6.292;2022-07-12T03:15:02;0.63;;;0.40;;
44536;SDS011;30245;51.966;6.292;2022-07-12T03:17:29;0.70;;;0.40;;
44536;SDS011;30245;51.966;6.292;2022-07-12T03:19:54;0.77;;;0.52;;
44536;SDS011;30245;51.966;6.292;2022-07-12T03:22:20;1.00;;;0.70;;
44536;SDS011;30245;51.966;6.292;2022-07-12T03:24:46;0.55;;;0.30;;
44536;SDS011;30245;51.966;6.292;2022-07-12T03:27:11;0.80;;;0.50;;
44536;SDS011;30245;51.966;6.292;2022-07-12T03:29:37;0.70;;;0.45;;
44536;SDS011;30245;51.966;6.292;2022-07-12T03:32:04;0.75;;;0.40;;
44536;SDS011;30245;51.966;6.292;2022-07-12T03:34:31;1.20;;;0.40;;
44536;SDS011;30245;51.966;6.292;2022-07-12T03:36:57;0.95;;;0.50;;
44536;SDS011;30245;51.966;6.292;2022-07-12T03:39:23;1.20;;;0.50;;
44536;SDS011;30245;51.966;6.292;2022-07-12T03:41:49;0.80;;;0.50;;
44536;SDS011;30245;51.966;6.292;2022-07-12T03:44:15;0.70;;;0.40;;
44536;SDS011;30245;51.966;6.292;2022-07-12T03:46:40;0.82;;;0.40;;
44536;SDS011;30245;51.966;6.292;2022-07-12T03:49:06;1.13;;;0.73;;
44536;SDS011;30245;51.966;6.292;2022-07-12T03:51:32;0.60;;;0.47;;
44536;SDS011;30245;51.966;6.292;2022-07-12T03:53:58;0.73;;;0.40;;
44536;SDS011;30245;51.966;6.292;2022-07-12T03:56:24;0.88;;;0.50;;
44536;SDS011;30245;51.966;6.292;2022-07-12T03:59:08;0.68;;;0.40;;
44536;SDS011;30245;51.966;6.292;2022-07-12T04:01:34;2.25;;;0.30;;
44536;SDS011;30245;51.966;6.292;2022-07-12T04:04:00;0.77;;;0.30;;
44536;SDS011;30245;51.966;6.292;2022-07-12T04:06:26;0.70;;;0.40;;
44536;SDS011;30245;51.966;6.292;2022-07-12T04:08:52;0.73;;;0.40;;
44536;SDS011;30245;51.966;6.292;2022-07-12T04:11:18;1.20;;;0.50;;
44536;SDS011;30245;51.966;6.292;2022-07-12T04:13:43;2.20;;;0.63;;
44536;SDS011;30245;51.966;6.292;2022-07-12T04:16:09;0.63;;;0.43;;
44536;SDS011;30245;51.966;6.292;2022-07-12T04:18:35;0.70;;;0.40;;
44536;SDS011;30245;51.966;6.292;2022-07-12T04:21:00;0.93;;;0.63;;
44536;SDS011;30245;51.966;6.292;2022-07-12T04:23:26;0.90;;;0.50;;
44536;SDS011;30245;51.966;6.292;2022-07-12T04:25:52;2.28;;;0.50;;
44536;SDS011;30245;51.966;6.292;2022-07-12T04:28:17;1.10;;;0.60;;
44536;SDS011;30245;51.966;6.292;2022-07-12T04:30:43;0.98;;;0.65;;
44536;SDS011;30245;51.966;6.292;2022-07-12T04:33:10;1.15;;;0.65;;
44536;SDS011;30245;51.966;6.292;2022-07-12T04:35:36;2.92;;;0.60;;
44536;SDS011;30245;51.966;6.292;2022-07-12T04:38:02;0.85;;;0.60;;
44536;SDS011;30245;51.966;6.292;2022-07-12T04:40:29;0.90;;;0.60;;
44536;SDS011;30245;51.966;6.292;2022-07-12T04:42:55;1.15;;;0.80;;
44536;SDS011;30245;51.966;6.292;2022-07-12T04:45:21;1.40;;;0.80;;
44536;SDS011;30245;51.966;6.292;2022-07-12T04:47:47;1.63;;;0.98;;
44536;SDS011;30245;51.966;6.292;2022-07-12T04:50:13;1.33;;;1.00;;
44536;SDS011;30245;51.966;6.292;2022-07-12T04:52:38;1.10;;;0.80;;
44536;SDS011;30245;51.966;6.292;2022-07-12T04:55:05;1.48;;;0.90;;
44536;SDS011;30245;51.966;6.292;2022-07-12T04:57:31;1.30;;;0.90;;
44536;SDS011;30245;51.966;6.292;2022-07-12T04:59:57;1.27;;;0.73;;
44536;SDS011;30245;51.966;6.292;2022-07-12T05:02:23;1.08;;;0.90;;
44536;SDS011;30245;51.966;6.292;2022-07-12T05:04:48;1.23;;;1.00;;
44536;SDS011;30245;51.966;6.292;2022-07-12T05:07:14;1.20;;;1.10;;
44536;SDS011;30245;51.966;6.292;2022-07-12T05:09:40;2.25;;;0.93;;
44536;SDS011;30245;51.966;6.292;2022-07-12T05:12:06;1.70;;;1.20;;
44536;SDS011;30245;51.966;6.292;2022-07-12T05:14:32;1.15;;;0.80;;
44536;SDS011;30245;51.966;6.292;2022-07-12T05:16:57;1.08;;;0.73;;
44536;SDS011;30245;51.966;6.292;2022-07-12T05:19:23;1.55;;;1.08;;
44536;SDS011;30245;51.966;6.292;2022-07-12T05:21:50;1.33;;;1.20;;
44536;SDS011;30245;51.966;6.292;2022-07-12T05:24:16;1.30;;;1.20;;
44536;SDS011;30245;51.966;6.292;2022-07-12T05:26:41;1.27;;;0.98;;
44536;SDS011;30245;51.966;6.292;2022-07-12T05:29:07;0.98;;;0.85;;
44536;SDS011;30245;51.966;6.292;2022-07-12T05:31:33;1.35;;;0.77;;
44536;SDS011;30245;51.966;6.292;2022-07-12T05:33:59;0.77;;;0.77;;
44536;SDS011;30245;51.966;6.292;2022-07-12T05:36:25;1.02;;;0.93;;
44536;SDS011;30245;51.966;6.292;2022-07-12T05:38:51;1.00;;;0.90;;
44536;SDS011;30245;51.966;6.292;2022-07-12T05:41:16;1.00;;;0.90;;
44536;SDS011;30245;51.966;6.292;2022-07-12T05:43:42;1.42;;;1.05;;
44536;SDS011;30245;51.966;6.292;2022-07-12T05:46:11;1.33;;;0.98;;
44536;SDS011;30245;51.966;6.292;2022-07-12T05:48:37;1.25;;;1.10;;
44536;SDS011;30245;51.966;6.292;2022-07-12T05:51:03;1.48;;;1.08;;
44536;SDS011;30245;51.966;6.292;2022-07-12T05:53:48;1.13;;;0.82;;
44536;SDS011;30245;51.966;6.292;2022-07-12T05:56:14;2.95;;;1.38;;
44536;SDS011;30245;51.966;6.292;2022-07-12T05:58:40;1.48;;;1.10;;
44536;SDS011;30245;51.966;6.292;2022-07-12T06:01:06;1.95;;;0.98;;
44536;SDS011;30245;51.966;6.292;2022-07-12T06:03:32;1.67;;;1.02;;
44536;SDS011;30245;51.966;6.292;2022-07-12T06:05:58;2.20;;;1.45;;
44536;SDS011;30245;51.966;6.292;2022-07-12T06:08:24;1.52;;;1.17;;
44536;SDS011;30245;51.966;6.292;2022-07-12T06:10:50;2.35;;;1.65;;
44536;SDS011;30245;51.966;6.292;2022-07-12T06:13:16;1.30;;;0.90;;
44536;SDS011;30245;51.966;6.292;2022-07-12T06:15:41;1.63;;;1.17;;
44536;SDS011;30245;51.966;6.292;2022-07-12T06:18:07;1.40;;;0.80;;
44536;SDS011;30245;51.966;6.292;2022-07-12T06:20:33;3.33;;;1.00;;
44536;SDS011;30245;51.966;6.292;2022-07-12T06:22:59;1.33;;;1.20;;
44536;SDS011;30245;51.966;6.292;2022-07-12T06:25:25;1.98;;;0.82;;
44536;SDS011;30245;51.966;6.292;2022-07-12T06:27:51;1.60;;;1.08;;
44536;SDS011;30245;51.966;6.292;2022-07-12T06:30:17;8.35;;;3.00;;
44536;SDS011;30245;51.966;6.292;2022-07-12T06:32:47;4.00;;;1.20;;
44536;SDS011;30245;51.966;6.292;2022-07-12T06:35:13;2.65;;;0.80;;
44536;SDS011;30245;51.966;6.292;2022-07-12T06:37:40;1.73;;;1.23;;
44536;SDS011;30245;51.966;6.292;2022-07-12T06:40:06;4.50;;;1.85;;
44536;SDS011;30245;51.966;6.292;2022-07-12T06:42:33;3.95;;;3.55;;
44536;SDS011;30245;51.966;6.292;2022-07-12T06:44:59;4.97;;;4.57;;
44536;SDS011;30245;51.966;6.292;2022-07-12T06:47:25;4.80;;;4.40;;
44536;SDS011;30245;51.966;6.292;2022-07-12T06:49:51;3.53;;;2.97;;
44536;SDS011;30245;51.966;6.292;2022-07-12T06:52:16;2.28;;;2.08;;
44536;SDS011;30245;51.966;6.292;2022-07-12T06:54:42;1.88;;;1.77;;
44536;SDS011;30245;51.966;6.292;2022-07-12T06:57:08;1.83;;;1.55;;
44536;SDS011;30245;51.966;6.292;2022-07-12T06:59:34;2.15;;;1.05;;
44536;SDS011;30245;51.966;6.292;2022-07-12T07:01:59;2.28;;;1.13;;
44536;SDS011;30245;51.966;6.292;2022-07-12T07:04:25;1.67;;;1.42;;
44536;SDS011;30245;51.966;6.292;2022-07-12T07:06:51;4.35;;;1.83;;
44536;SDS011;30245;51.966;6.292;2022-07-12T07:09:17;0.90;;;0.70;;
44536;SDS011;30245;51.966;6.292;2022-07-12T07:11:43;0.98;;;0.80;;
44536;SDS011;30245;51.966;6.292;2022-07-12T07:14:09;1.30;;;1.00;;
44536;SDS011;30245;51.966;6.292;2022-07-12T07:16:34;1.15;;;1.02;;
44536;SDS011;30245;51.966;6.292;2022-07-12T07:19:00;1.33;;;1.23;;
44536;SDS011;30245;51.966;6.292;2022-07-12T07:21:27;2.55;;;0.90;;
44536;SDS011;30245;51.966;6.292;2022-07-12T07:23:53;1.25;;;0.88;;
44536;SDS011;30245;51.966;6.292;2022-07-12T07:26:20;1.88;;;1.38;;
44536;SDS011;30245;51.966;6.292;2022-07-12T07:28:46;1.65;;;1.10;;
44536;SDS011;30245;51.966;6.292;2022-07-12T07:31:37;3.92;;;2.38;;
44536;SDS011;30245;51.966;6.292;2022-07-12T07:34:03;1.88;;;1.45;;
44536;SDS011;30245;51.966;6.292;2022-07-12T07:36:29;1.50;;;1.30;;
44536;SDS011;30245;51.966;6.292;2022-07-12T07:38:56;1.60;;;0.95;;
44536;SDS011;30245;51.966;6.292;2022-07-12T07:41:22;1.88;;;1.48;;
44536;SDS011;30245;51.966;6.292;2022-07-12T07:43:48;1.90;;;1.20;;
44536;SDS011;30245;51.966;6.292;2022-07-12T07:46:14;1.83;;;0.85;;
44536;SDS011;30245;51.966;6.292;2022-07-12T07:48:40;2.80;;;1.00;;
44536;SDS011;30245;51.966;6.292;2022-07-12T07:51:05;1.20;;;0.98;;
44536;SDS011;30245;51.966;6.292;2022-07-12T07:53:31;1.45;;;1.08;;
44536;SDS011;30245;51.966;6.292;2022-07-12T07:55:57;1.30;;;0.70;;
44536;SDS011;30245;51.966;6.292;2022-07-12T07:58:23;0.90;;;0.60;;
44536;SDS011;30245;51.966;6.292;2022-07-12T08:00:49;4.13;;;1.15;;
44536;SDS011;30245;51.966;6.292;2022-07-12T08:03:16;3.85;;;0.60;;
44536;SDS011;30245;51.966;6.292;2022-07-12T08:05:42;1.42;;;0.60;;
44536;SDS011;30245;51.966;6.292;2022-07-12T08:08:07;1.25;;;0.80;;
44536;SDS011;30245;51.966;6.292;2022-07-12T08:10:33;0.77;;;0.52;;
44536;SDS011;30245;51.966;6.292;2022-07-12T08:12:59;1.58;;;0.60;;
44536;SDS011;30245;51.966;6.292;2022-07-12T08:15:25;0.95;;;0.40;;
44536;SDS011;30245;51.966;6.292;2022-07-12T08:17:51;1.95;;;0.40;;
44536;SDS011;30245;51.966;6.292;2022-07-12T08:20:16;1.02;;;0.60;;
44536;SDS011;30245;51.966;6.292;2022-07-12T08:22:45;0.88;;;0.60;;
44536;SDS011;30245;51.966;6.292;2022-07-12T08:25:12;0.50;;;0.30;;
44536;SDS011;30245;51.966;6.292;2022-07-12T08:27:38;0.70;;;0.30;;
44536;SDS011;30245;51.966;6.292;2022-07-12T08:30:04;3.33;;;0.30;;
44536;SDS011;30245;51.966;6.292;2022-07-12T08:32:31;0.50;;;0.30;;
44536;SDS011;30245;51.966;6.292;2022-07-12T08:34:56;1.15;;;0.38;;
44536;SDS011;30245;51.966;6.292;2022-07-12T08:37:22;0.85;;;0.30;;
44536;SDS011;30245;51.966;6.292;2022-07-12T08:39:48;1.88;;;0.30;;
44536;SDS011;30245;51.966;6.292;2022-07-12T08:42:14;0.80;;;0.20;;
44536;SDS011;30245;51.966;6.292;2022-07-12T08:44:41;0.40;;;0.20;;
44536;SDS011;30245;51.966;6.292;2022-07-12T08:47:08;0.80;;;0.30;;
44536;SDS011;30245;51.966;6.292;2022-07-12T08:49:35;0.65;;;0.28;;
44536;SDS011;30245;51.966;6.292;2022-07-12T08:52:44;1.65;;;0.50;;
44536;SDS011;30245;51.966;6.292;2022-07-12T08:54:51;0.68;;;0.30;;
44536;SDS011;30245;51.966;6.292;2022-07-12T08:57:30;1.30;;;0.30;;
44536;SDS011;30245;51.966;6.292;2022-07-12T08:59:59;2.88;;;1.20;;
44536;SDS011;30245;51.966;6.292;2022-07-12T09:02:26;0.90;;;0.30;;
44536;SDS011;30245;51.966;6.292;2022-07-12T09:05:08;0.60;;;0.40;;
44536;SDS011;30245;51.966;6.292;2022-07-12T09:07:34;0.55;;;0.30;;
44536;SDS011;30245;51.966;6.292;2022-07-12T09:10:08;1.60;;;0.40;;
44536;SDS011;30245;51.966;6.292;2022-07-12T09:12:35;0.57;;;0.30;;
44536;SDS011;30245;51.966;6.292;2022-07-12T09:20:12;0.70;;;0.30;;
44536;SDS011;30245;51.966;6.292;2022-07-12T09:22:53;0.85;;;0.70;;
44536;SDS011;30245;51.966;6.292;2022-07-12T09:25:21;1.75;;;0.60;;
44536;SDS011;30245;51.966;6.292;2022-07-12T09:27:48;0.85;;;0.40;;
44536;SDS011;30245;51.966;6.292;2022-07-12T09:30:16;0.70;;;0.30;;
44536;SDS011;30245;51.966;6.292;2022-07-12T09:32:51;1.08;;;0.50;;
44536;SDS011;30245;51.966;6.292;2022-07-12T09:35:36;0.75;;;0.40;;
44536;SDS011;30245;51.966;6.292;2022-07-12T09:38:20;0.57;;;0.30;;
44536;SDS011;30245;51.966;6.292;2022-07-12T09:40:46;1.80;;;0.40;;
44536;SDS011;30245;51.966;6.292;2022-07-12T09:43:14;0.60;;;0.30;;
44536;SDS011;30245;51.966;6.292;2022-07-12T09:45:40;3.65;;;0.40;;
44536;SDS011;30245;51.966;6.292;2022-07-12T09:48:08;0.88;;;0.30;;
44536;SDS011;30245;51.966;6.292;2022-07-12T09:53:03;0.80;;;0.32;;
44536;SDS011;30245;51.966;6.292;2022-07-12T09:55:29;1.10;;;0.50;;
44536;SDS011;30245;51.966;6.292;2022-07-12T09:57:57;0.60;;;0.30;;
44536;SDS011;30245;51.966;6.292;2022-07-12T10:00:27;0.38;;;0.28;;
44536;SDS011;30245;51.966;6.292;2022-07-12T10:02:54;0.85;;;0.40;;
44536;SDS011;30245;51.966;6.292;2022-07-12T10:05:20;0.35;;;0.20;;
44536;SDS011;30245;51.966;6.292;2022-07-12T10:07:50;0.50;;;0.25;;
44536;SDS011;30245;51.966;6.292;2022-07-12T10:10:16;0.35;;;0.10;;
44536;SDS011;30245;51.966;6.292;2022-07-12T10:12:43;1.10;;;0.17;;
44536;SDS011;30245;51.966;6.292;2022-07-12T10:15:10;1.85;;;0.10;;
44536;SDS011;30245;51.966;6.292;2022-07-12T10:17:50;0.73;;;0.10;;
44536;SDS011;30245;51.966;6.292;2022-07-12T10:20:23;0.65;;;0.10;;
44536;SDS011;30245;51.966;6.292;2022-07-12T10:22:52;0.40;;;0.10;;
44536;SDS011;30245;51.966;6.292;2022-07-12T10:27:51;0.30;;;0.20;;
44536;SDS011;30245;51.966;6.292;2022-07-12T10:30:18;0.52;;;0.20;;
44536;SDS011;30245;51.966;6.292;2022-07-12T10:35:32;0.52;;;0.20;;
44536;SDS011;30245;51.966;6.292;2022-07-12T10:40:38;0.35;;;0.20;;
44536;SDS011;30245;51.966;6.292;2022-07-12T10:45:37;0.57;;;0.20;;
44536;SDS011;30245;51.966;6.292;2022-07-12T10:48:06;0.30;;;0.10;;
44536;SDS011;30245;51.966;6.292;2022-07-12T10:58:30;1.05;;;0.10;;
44536;SDS011;30245;51.966;6.292;2022-07-12T11:00:57;1.33;;;0.50;;
44536;SDS011;30245;51.966;6.292;2022-07-12T11:03:42;0.10;;;0.03;;
44536;SDS011;30245;51.966;6.292;2022-07-12T11:06:25;0.20;;;0.10;;
44536;SDS011;30245;51.966;6.292;2022-07-12T11:11:34;0.32;;;0.10;;
44536;SDS011;30245;51.966;6.292;2022-07-12T11:14:05;0.40;;;0.10;;
44536;SDS011;30245;51.966;6.292;2022-07-12T11:16:31;0.20;;;0.03;;
44536;SDS011;30245;51.966;6.292;2022-07-12T11:18:57;1.25;;;0.03;;
44536;SDS011;30245;51.966;6.292;2022-07-12T11:21:23;0.13;;;0.00;;
44536;SDS011;30245;51.966;6.292;2022-07-12T11:23:49;0.20;;;0.10;;
44536;SDS011;30245;51.966;6.292;2022-07-12T11:26:15;4.47;;;0.15;;
44536;SDS011;30245;51.966;6.292;2022-07-12T11:28:41;0.40;;;0.10;;
44536;SDS011;30245;51.966;6.292;2022-07-12T11:31:09;0.20;;;0.10;;
44536;SDS011;30245;51.966;6.292;2022-07-12T11:33:37;0.17;;;0.10;;
44536;SDS011;30245;51.966;6.292;2022-07-12T11:36:06;0.20;;;0.08;;
44536;SDS011;30245;51.966;6.292;2022-07-12T11:38:33;0.30;;;0.10;;
44536;SDS011;30245;51.966;6.292;2022-07-12T11:41:03;0.50;;;0.00;;
44536;SDS011;30245;51.966;6.292;2022-07-12T11:43:31;0.32;;;0.10;;
44536;SDS011;30245;51.966;6.292;2022-07-12T11:45:58;0.35;;;0.10;;
44536;SDS011;30245;51.966;6.292;2022-07-12T11:48:25;0.28;;;0.10;;
44536;SDS011;30245;51.966;6.292;2022-07-12T11:50:52;0.32;;;0.00;;
44536;SDS011;30245;51.966;6.292;2022-07-12T11:53:20;0.22;;;0.10;;
44536;SDS011;30245;51.966;6.292;2022-07-12T11:55:51;0.10;;;0.00;;
44536;SDS011;30245;51.966;6.292;2022-07-12T11:58:22;0.05;;;0.00;;
44536;SDS011;30245;51.966;6.292;2022-07-12T12:00:48;1.55;;;0.00;;
44536;SDS011;30245;51.966;6.292;2022-07-12T12:03:16;0.28;;;0.10;;
44536;SDS011;30245;51.966;6.292;2022-07-12T12:05:43;0.60;;;0.10;;
44536;SDS011;30245;51.966;6.292;2022-07-12T12:08:11;0.98;;;0.10;;
44536;SDS011;30245;51.966;6.292;2022-07-12T12:10:39;0.68;;;0.20;;
44536;SDS011;30245;51.966;6.292;2022-07-12T12:13:16;0.20;;;0.10;;
44536;SDS011;30245;51.966;6.292;2022-07-12T12:15:48;0.22;;;0.10;;
44536;SDS011;30245;51.966;6.292;2022-07-12T12:18:16;0.15;;;0.00;;
44536;SDS011;30245;51.966;6.292;2022-07-12T12:20:42;0.30;;;0.10;;
44536;SDS011;30245;51.966;6.292;2022-07-12T12:23:17;1.38;;;0.10;;
44536;SDS011;30245;51.966;6.292;2022-07-12T12:25:44;1.07;;;0.00;;
44536;SDS011;30245;51.966;6.292;2022-07-12T12:28:11;0.47;;;0.00;;
44536;SDS011;30245;51.966;6.292;2022-07-12T12:30:50;0.00;;;0.00;;
44536;SDS011;30245;51.966;6.292;2022-07-12T12:33:37;0.20;;;0.00;;
44536;SDS011;30245;51.966;6.292;2022-07-12T12:36:37;0.17;;;0.10;;
44536;SDS011;30245;51.966;6.292;2022-07-12T12:39:02;0.30;;;0.00;;
44536;SDS011;30245;51.966;6.292;2022-07-12T12:41:37;0.90;;;0.32;;
44536;SDS011;30245;51.966;6.292;2022-07-12T12:44:06;1.27;;;0.20;;
44536;SDS011;30245;51.966;6.292;2022-07-12T12:52:10;0.10;;;0.00;;
44536;SDS011;30245;51.966;6.292;2022-07-12T12:54:36;0.45;;;0.10;;
44536;SDS011;30245;51.966;6.292;2022-07-12T12:57:03;0.17;;;0.00;;
44536;SDS011;30245;51.966;6.292;2022-07-12T12:59:31;0.30;;;0.10;;
44536;SDS011;30245;51.966;6.292;2022-07-12T13:04:26;0.00;;;0.00;;
44536;SDS011;30245;51.966;6.292;2022-07-12T13:06:56;0.20;;;0.00;;
44536;SDS011;30245;51.966;6.292;2022-07-12T13:09:24;2.10;;;0.10;;
44536;SDS011;30245;51.966;6.292;2022-07-12T13:11:50;0.20;;;0.10;;
44536;SDS011;30245;51.966;6.292;2022-07-12T13:14:16;0.13;;;0.00;;
44536;SDS011;30245;51.966;6.292;2022-07-12T13:16:42;0.13;;;0.00;;
44536;SDS011;30245;51.966;6.292;2022-07-12T13:19:07;1.20;;;0.00;;
44536;SDS011;30245;51.966;6.292;2022-07-12T13:21:33;0.22;;;0.10;;
44536;SDS011;30245;51.966;6.292;2022-07-12T13:23:59;0.20;;;0.00;;
44536;SDS011;30245;51.966;6.292;2022-07-12T13:26:25;0.95;;;0.13;;
44536;SDS011;30245;51.966;6.292;2022-07-12T13:28:52;0.55;;;0.05;;
44536;SDS011;30245;51.966;6.292;2022-07-12T13:31:18;0.20;;;0.10;;
44536;SDS011;30245;51.966;6.292;2022-07-12T13:33:44;0.22;;;0.10;;
44536;SDS011;30245;51.966;6.292;2022-07-12T13:36:09;3.22;;;0.10;;
44536;SDS011;30245;51.966;6.292;2022-07-12T13:38:35;0.20;;;0.00;;
44536;SDS011;30245;51.966;6.292;2022-07-12T13:41:01;1.10;;;0.05;;
44536;SDS011;30245;51.966;6.292;2022-07-12T13:43:27;0.68;;;0.08;;
44536;SDS011;30245;51.966;6.292;2022-07-12T13:45:52;0.10;;;0.00;;
44536;SDS011;30245;51.966;6.292;2022-07-12T13:48:18;0.57;;;0.10;;
44536;SDS011;30245;51.966;6.292;2022-07-12T13:50:44;0.22;;;0.10;;
44536;SDS011;30245;51.966;6.292;2022-07-12T13:53:10;1.30;;;0.13;;
44536;SDS011;30245;51.966;6.292;2022-07-12T13:55:35;0.10;;;0.03;;
44536;SDS011;30245;51.966;6.292;2022-07-12T13:58:02;0.70;;;0.30;;
44536;SDS011;30245;51.966;6.292;2022-07-12T14:00:31;0.35;;;0.10;;
44536;SDS011;30245;51.966;6.292;2022-07-12T14:02:56;1.50;;;0.00;;
44536;SDS011;30245;51.966;6.292;2022-07-12T14:05:22;0.20;;;0.00;;
44536;SDS011;30245;51.966;6.292;2022-07-12T14:07:48;0.77;;;0.25;;
44536;SDS011;30245;51.966;6.292;2022-07-12T14:10:15;0.20;;;0.00;;
44536;SDS011;30245;51.966;6.292;2022-07-12T14:12:40;0.75;;;0.05;;
44536;SDS011;30245;51.966;6.292;2022-07-12T14:15:07;0.30;;;0.10;;
44536;SDS011;30245;51.966;6.292;2022-07-12T14:17:49;0.28;;;0.15;;
44536;SDS011;30245;51.966;6.292;2022-07-12T14:20:19;0.13;;;0.03;;
44536;SDS011;30245;51.966;6.292;2022-07-12T14:22:46;2.33;;;0.10;;
44536;SDS011;30245;51.966;6.292;2022-07-12T14:25:12;1.15;;;0.20;;
44536;SDS011;30245;51.966;6.292;2022-07-12T14:27:39;1.73;;;0.00;;
44536;SDS011;30245;51.966;6.292;2022-07-12T14:30:06;0.32;;;0.10;;
44536;SDS011;30245;51.966;6.292;2022-07-12T14:32:34;0.10;;;0.00;;
44536;SDS011;30245;51.966;6.292;2022-07-12T14:35:00;0.60;;;0.08;;
44536;SDS011;30245;51.966;6.292;2022-07-12T14:37:27;0.10;;;0.00;;
44536;SDS011;30245;51.966;6.292;2022-07-12T14:39:52;0.40;;;0.10;;
44536;SDS011;30245;51.966;6.292;2022-07-12T14:42:18;0.15;;;0.00;;
44536;SDS011;30245;51.966;6.292;2022-07-12T14:44:45;0.15;;;0.00;;
44536;SDS011;30245;51.966;6.292;2022-07-12T14:47:10;0.22;;;0.00;;
44536;SDS011;30245;51.966;6.292;2022-07-12T14:49:36;0.00;;;0.00;;
44536;SDS011;30245;51.966;6.292;2022-07-12T14:52:03;0.10;;;0.00;;
44536;SDS011;30245;51.966;6.292;2022-07-12T14:54:31;1.00;;;0.10;;
44536;SDS011;30245;51.966;6.292;2022-07-12T14:56:56;0.20;;;0.05;;
44536;SDS011;30245;51.966;6.292;2022-07-12T14:59:22;0.13;;;0.03;;
44536;SDS011;30245;51.966;6.292;2022-07-12T15:01:48;1.55;;;0.20;;
44536;SDS011;30245;51.966;6.292;2022-07-12T15:04:14;0.30;;;0.17;;
44536;SDS011;30245;51.966;6.292;2022-07-12T15:06:40;0.30;;;0.10;;
44536;SDS011;30245;51.966;6.292;2022-07-12T15:09:05;0.70;;;0.10;;
44536;SDS011;30245;51.966;6.292;2022-07-12T15:11:31;3.40;;;0.10;;
44536;SDS011;30245;51.966;6.292;2022-07-12T15:13:57;0.20;;;0.10;;
44536;SDS011;30245;51.966;6.292;2022-07-12T15:16:23;1.02;;;0.00;;
44536;SDS011;30245;51.966;6.292;2022-07-12T15:18:48;0.20;;;0.10;;
44536;SDS011;30245;51.966;6.292;2022-07-12T15:21:14;0.30;;;0.10;;
44536;SDS011;30245;51.966;6.292;2022-07-12T15:23:40;0.30;;;0.10;;
44536;SDS011;30245;51.966;6.292;2022-07-12T15:26:06;0.08;;;0.00;;
44536;SDS011;30245;51.966;6.292;2022-07-12T15:28:32;0.22;;;0.10;;
44536;SDS011;30245;51.966;6.292;2022-07-12T15:30:58;1.17;;;0.10;;
44536;SDS011;30245;51.966;6.292;2022-07-12T15:33:24;0.60;;;0.10;;